Time;durP1;ratioP1;P1;durP2;ratioP2;P2;SDS_P1;SDS_P2;PMS_P1;PMS_P2;Temp;Humidity;BMP_temperature;BMP_pressure;BME280_temperature;BME280_humidity;BME280_pressure;Samples;Min_cycle;Max_cycle;Signal;HPM_P1;HPM_P2
2023/03/01 00:01:41;;;;;;;28.43;14.27;;;-0.40;67.40;;;3.21;43.38;98361.03;5072934;28;20048;-42
2023/03/01 00:04:08;;;;;;;26.63;12.93;;;-0.40;66.90;;;3.19;43.42;98357.66;5073538;28;20067;-43
2023/03/01 00:06:37;;;;;;;20.03;11.70;;;-0.40;67.00;;;3.14;43.78;98352.66;5063263;28;20412;-42
2023/03/01 00:09:06;;;;;;;24.23;12.33;;;-0.50;67.30;;;3.14;43.29;98352.66;5072910;28;20043;-41
2023/03/01 00:11:34;;;;;;;21.80;11.50;;;-0.50;67.50;;;3.10;43.43;98359.94;5073052;28;20055;-43
2023/03/01 00:14:06;;;;;;;22.43;12.07;;;-0.50;67.80;;;3.07;43.65;98354.00;5064815;28;20040;-44
2023/03/01 00:16:39;;;;;;;20.57;10.63;;;-0.60;67.80;;;3.03;43.96;98352.53;5073124;28;20051;-43
2023/03/01 00:19:17;;;;;;;18.43;9.73;;;-0.60;67.60;;;3.00;43.41;98356.16;5073347;28;20044;-42
2023/03/01 00:21:45;;;;;;;21.10;11.03;;;-0.60;67.60;;;3.00;43.58;98355.31;5038882;28;20053;-43
2023/03/01 00:24:13;;;;;;;19.73;10.73;;;-0.60;68.10;;;2.96;43.60;98352.03;5072354;28;20056;-42
2023/03/01 00:26:41;;;;;;;15.80;10.20;;;-0.60;68.40;;;2.91;44.10;98351.50;5055102;28;20056;-43
2023/03/01 00:29:08;;;;;;;17.53;10.33;;;-0.70;68.10;;;2.92;43.92;98355.81;5062464;28;20056;-42
2023/03/01 00:31:36;;;;;;;18.80;10.77;;;-0.70;68.10;;;2.92;43.78;98350.53;5071997;28;20385;-43
2023/03/01 00:34:05;;;;;;;21.00;11.87;;;-0.70;68.40;;;2.88;43.92;98354.31;5054433;28;20056;-42
2023/03/01 00:36:36;;;;;;;17.03;10.07;;;-0.70;68.40;;;2.88;44.06;98354.31;5054716;28;20048;-42
2023/03/01 00:39:11;;;;;;;16.93;9.60;;;-0.60;68.20;;;2.85;43.98;98358.00;5054106;28;20052;-43
2023/03/01 00:41:40;;;;;;;22.57;11.77;;;-0.70;68.10;;;2.84;43.96;98365.97;5054454;28;20080;-42
2023/03/01 00:44:09;;;;;;;18.03;10.80;;;-0.70;68.80;;;2.84;44.30;98365.97;5072748;28;20389;-43
2023/03/01 00:46:37;;;;;;;20.10;10.83;;;-0.80;68.90;;;2.85;44.24;98365.88;5053941;28;20140;-43
2023/03/01 00:49:04;;;;;;;19.50;9.77;;;-0.80;68.40;;;2.85;43.96;98365.00;5054929;28;20041;-42
2023/03/01 00:51:33;;;;;;;20.70;10.47;;;-0.80;68.50;;;2.84;44.03;98355.44;5072971;28;20475;-48
2023/03/01 00:54:02;;;;;;;18.17;9.33;;;-0.80;68.40;;;2.85;44.09;98360.63;5054078;28;20045;-47
2023/03/01 00:56:31;;;;;;;15.90;9.43;;;-0.70;68.50;;;2.88;44.14;98356.94;5072102;28;20108;-52
2023/03/01 00:58:59;;;;;;;18.53;9.67;;;-0.70;68.20;;;2.87;43.96;98347.34;5071396;28;20500;-45
2023/03/01 01:01:30;;;;;;;22.23;12.13;;;-0.70;68.10;;;2.84;44.18;98350.19;5054155;28;20052;-47
2023/03/01 01:04:12;;;;;;;23.27;11.53;;;-0.70;68.40;;;2.76;43.84;98351.50;5071687;28;20040;-47
2023/03/01 01:06:45;;;;;;;26.37;11.57;;;-0.70;68.60;;;2.76;44.26;98351.50;5053218;28;20055;-51
2023/03/01 01:09:17;;;;;;;23.10;12.38;;;-0.80;68.50;;;2.73;44.07;98356.97;5053890;28;20072;-50
2023/03/01 01:11:48;;;;;;;27.67;13.53;;;-0.90;69.70;;;2.69;44.21;98355.44;5071761;28;20044;-48
2023/03/01 01:14:19;;;;;;;32.47;14.97;;;-0.90;69.00;;;2.66;44.12;98345.13;5046506;28;20055;-47
2023/03/01 01:16:46;;;;;;;31.67;14.30;;;-0.90;69.20;;;2.68;44.43;98353.75;5053225;28;20041;-45
2023/03/01 01:19:14;;;;;;;28.17;15.57;;;-0.90;69.20;;;2.66;44.38;98342.50;5072246;28;20049;-42
2023/03/01 01:21:43;;;;;;;25.97;13.93;;;-0.90;69.10;;;2.65;44.26;98346.06;5036385;28;20049;-43
2023/03/01 01:24:11;;;;;;;23.73;13.90;;;-0.90;69.00;;;2.66;44.42;98341.66;5053947;28;20049;-43
2023/03/01 01:26:39;;;;;;;24.30;13.27;;;-0.90;68.70;;;2.63;44.02;98340.03;5061510;28;20048;-41
2023/03/01 01:29:07;;;;;;;25.13;12.93;;;-0.90;68.80;;;2.64;44.16;98340.91;5044953;28;20412;-42
2023/03/01 01:31:37;;;;;;;25.50;13.80;;;-1.00;68.90;;;2.62;44.35;98332.25;5053647;28;20048;-42
2023/03/01 01:34:07;;;;;;;25.03;13.33;;;-1.00;68.50;;;2.59;43.97;98338.53;5061979;28;20048;-41
2023/03/01 01:36:35;;;;;;;26.80;14.60;;;-1.00;68.50;;;2.57;44.43;98324.66;5052423;28;20044;-42
2023/03/01 01:39:03;;;;;;;25.03;13.83;;;-1.00;68.10;;;2.60;43.90;98327.09;5053134;28;20059;-42
2023/03/01 01:41:31;;;;;;;35.37;18.57;;;-1.00;68.00;;;2.58;44.08;98310.59;5061781;28;20052;-42
2023/03/01 01:44:23;;;;;;;31.70;18.27;;;-1.00;68.50;;;2.54;44.16;98322.22;5061579;28;20040;-41
2023/03/01 01:47:07;;;;;;;32.13;16.13;;;-1.00;68.60;;;2.54;44.15;98312.56;5052764;28;20508;-42
2023/03/01 01:49:55;;;;;;;27.67;15.10;;;-1.00;69.10;;;2.52;44.07;98303.91;5037551;28;20040;-41
2023/03/01 01:52:36;;;;;;;20.70;12.93;;;-1.00;69.00;;;2.53;44.18;98308.22;5058592;28;20481;-42
2023/03/01 01:55:21;;;;;;;21.10;12.13;;;-1.00;69.10;;;2.51;44.39;98304.84;5036839;28;20048;-42
2023/03/01 01:58:04;;;;;;;25.47;13.47;;;-1.00;69.30;;;2.47;44.59;98308.59;5053184;28;20048;-43
2023/03/01 02:00:32;;;;;;;24.23;13.33;;;-1.00;69.70;;;2.50;44.40;98308.44;5052298;28;20432;-42
2023/03/01 02:03:06;;;;;;;21.33;12.33;;;-1.00;69.40;;;2.53;44.35;98302.97;5052970;28;20056;-42
2023/03/01 02:05:50;;;;;;;19.13;11.25;;;-1.00;69.00;;;2.49;44.42;98306.72;5036406;28;20056;-41
2023/03/01 02:08:26;;;;;;;20.47;11.97;;;-1.10;69.10;;;2.49;44.36;98295.38;5037844;28;20055;-43
2023/03/01 02:10:57;;;;;;;22.75;11.35;;;-1.10;69.20;;;2.49;44.71;98284.84;5046298;28;20046;-42
2023/03/01 02:13:25;;;;;;;17.50;10.50;;;-1.10;69.70;;;2.46;44.94;98287.66;5053532;28;20053;-44
2023/03/01 02:15:54;;;;;;;19.97;11.17;;;-1.10;69.60;;;2.39;44.51;98281.97;5061011;28;20130;-41
2023/03/01 02:18:24;;;;;;;19.40;11.10;;;-1.20;70.10;;;2.35;44.81;98278.66;5036773;28;20520;-42
2023/03/01 02:21:26;;;;;;;18.37;10.37;;;-1.20;70.00;;;2.28;44.95;98281.75;5044615;28;20059;-42
2023/03/01 02:23:55;;;;;;;20.17;10.40;;;-1.20;70.10;;;2.32;44.84;98270.97;5037495;28;20215;-42
2023/03/01 02:26:40;;;;;;;20.57;12.13;;;-1.30;70.00;;;2.26;44.80;98273.13;5053180;28;20051;-43
2023/03/01 02:29:08;;;;;;;14.70;9.27;;;-1.30;70.70;;;2.27;45.17;98272.19;5064747;28;20041;-42
2023/03/01 02:31:41;;;;;;;20.23;11.10;;;-1.30;70.50;;;2.26;45.00;98268.72;5052872;28;20048;-42
2023/03/01 02:34:21;;;;;;;22.27;10.67;;;-1.30;70.70;;;2.24;44.74;98256.63;5052751;28;20055;-42
2023/03/01 02:36:55;;;;;;;19.07;10.40;;;-1.30;70.60;;;2.24;45.05;98257.44;5036321;28;20492;-42
2023/03/01 02:39:30;;;;;;;;;;;-1.30;70.50;;;2.11;45.18;98254.75;5036789;28;20055;-41
2023/03/01 02:42:01;;;;;;;19.60;10.03;;;-1.30;70.90;;;2.20;45.38;98253.31;5045632;28;19920;-43
2023/03/01 02:44:28;;;;;;;18.07;9.47;;;-1.40;70.60;;;2.19;45.31;98259.53;5052633;28;20151;-42
2023/03/01 02:47:01;;;;;;;17.07;10.17;;;-1.40;70.60;;;2.21;45.01;98252.41;5071064;28;20036;-42
2023/03/01 02:49:34;;;;;;;17.37;9.53;;;-1.40;70.70;;;2.21;45.26;98247.16;5036489;28;20554;-42
2023/03/01 02:52:36;;;;;;;15.53;9.07;;;-1.40;70.70;;;2.17;45.20;98240.38;5063692;28;20041;-42
2023/03/01 02:55:10;;;;;;;16.33;9.17;;;-1.40;71.20;;;2.22;44.94;98243.56;5049329;28;20788;-43
2023/03/01 02:57:43;;;;;;;20.20;9.87;;;-1.40;70.80;;;2.22;45.53;98245.38;5056370;28;20051;-44
2023/03/01 03:00:18;;;;;;;21.63;10.43;;;-1.30;71.10;;;2.27;45.83;98240.66;5048405;28;20419;-43
2023/03/01 03:02:50;;;;;;;16.53;10.43;;;-1.30;71.30;;;2.37;45.51;98241.78;5048776;28;20048;-42
2023/03/01 03:05:24;;;;;;;15.50;9.77;;;-1.20;71.10;;;2.45;45.62;98247.41;5056508;28;20053;-44
2023/03/01 03:07:55;;;;;;;19.87;10.07;;;-1.10;70.90;;;2.51;45.47;98241.75;5056722;28;20431;-42
2023/03/01 03:10:27;;;;;;;18.70;10.87;;;-1.10;70.90;;;2.58;45.36;98242.25;5039822;28;20549;-42
2023/03/01 03:13:13;;;;;;;20.30;10.30;;;-1.10;70.90;;;2.58;45.41;98233.47;5074388;28;20036;-42
2023/03/01 03:15:42;;;;;;;16.93;9.40;;;-1.00;70.70;;;2.68;45.32;98238.06;5073911;28;20514;-42
2023/03/01 03:18:14;;;;;;;22.50;10.40;;;-1.00;70.70;;;2.72;45.52;98226.41;5055937;28;20052;-42
2023/03/01 03:20:43;;;;;;;19.10;10.13;;;-0.90;70.80;;;2.74;45.75;98231.59;5073861;28;20495;-43
2023/03/01 03:23:12;;;;;;;17.13;9.80;;;-0.90;70.90;;;2.74;45.41;98232.41;5056432;28;20041;-41
2023/03/01 03:25:39;;;;;;;17.73;10.10;;;-0.80;71.10;;;2.79;45.72;98226.84;5073477;28;20504;-43
2023/03/01 03:28:10;;;;;;;17.97;10.43;;;-0.80;70.90;;;2.86;45.29;98230.78;5074128;28;20507;-43
2023/03/01 03:30:40;;;;;;;16.93;10.10;;;-0.80;70.70;;;2.89;45.37;98220.09;5073409;28;20036;-45
2023/03/01 03:33:10;;;;;;;23.10;10.30;;;-0.70;70.60;;;2.92;44.94;98222.50;5056394;28;20045;-44
2023/03/01 03:35:47;;;;;;;18.23;9.37;;;-0.70;70.50;;;2.95;44.86;98216.22;5056176;28;20048;-42
2023/03/01 03:38:20;;;;;;;19.07;10.47;;;-0.60;70.20;;;3.03;44.90;98216.56;5055177;28;20048;-43
2023/03/01 03:40:51;;;;;;;19.27;10.68;;;-0.60;70.10;;;3.08;45.06;98221.50;5056140;28;20436;-44
2023/03/01 03:43:22;;;;;;;20.07;10.63;;;-0.50;70.00;;;3.12;45.15;98220.34;5073916;28;20040;-42
2023/03/01 03:45:51;;;;;;;18.50;10.53;;;-0.50;69.70;;;3.16;45.35;98219.25;5055515;28;20048;-42
2023/03/01 03:48:19;;;;;;;17.83;10.07;;;-0.50;69.80;;;3.20;45.08;98223.34;5056156;28;20044;-42
2023/03/01 03:50:56;;;;;;;18.73;10.40;;;-0.40;70.00;;;3.19;44.78;98213.75;5056040;28;20063;-44
2023/03/01 03:53:26;;;;;;;19.23;11.17;;;-0.40;69.80;;;3.22;45.23;98215.34;5073055;28;20064;-46
2023/03/01 03:55:54;;;;;;;18.27;10.40;;;-0.40;70.10;;;3.25;45.32;98217.78;5055638;28;20044;-43
2023/03/01 03:58:23;;;;;;;17.37;10.23;;;-0.40;70.30;;;3.26;45.23;98215.06;5054937;28;20059;-44
2023/03/01 04:00:58;;;;;;;20.83;10.17;;;-0.40;70.40;;;3.23;45.12;98214.41;5072978;28;20041;-43
2023/03/01 04:03:27;;;;;;;19.20;10.73;;;-0.50;70.20;;;3.23;45.41;98203.88;5073570;28;20048;-45
2023/03/01 04:06:01;;;;;;;15.90;9.07;;;-0.40;70.50;;;3.21;45.43;98206.59;5072902;28;20045;-42
2023/03/01 04:08:29;;;;;;;20.70;11.70;;;-0.50;70.40;;;3.22;45.61;98200.41;5054789;28;20049;-44
2023/03/01 04:11:25;;;;;;;19.67;10.83;;;-0.50;70.50;;;3.23;45.43;98191.56;5073036;28;20389;-44
2023/03/01 04:13:48;;;;;;;18.83;11.27;;;-0.50;70.40;;;3.20;45.30;98193.53;5072762;28;20071;-44
2023/03/01 04:16:17;;;;;;;17.50;10.47;;;-0.50;70.50;;;3.23;45.32;98196.81;5072772;28;20036;-44
2023/03/01 04:18:45;;;;;;;20.33;11.13;;;-0.50;70.40;;;3.25;45.06;98188.84;5072926;28;20040;-43
2023/03/01 04:21:13;;;;;;;21.07;11.47;;;-0.40;70.50;;;3.26;45.14;98198.44;5072794;28;20422;-42
2023/03/01 04:23:41;;;;;;;18.10;11.13;;;-0.50;70.80;;;3.26;44.99;98198.44;5072669;28;20044;-43
2023/03/01 04:26:09;;;;;;;22.33;11.67;;;-0.50;71.30;;;3.26;45.02;98198.44;5072557;28;20045;-42
2023/03/01 04:28:42;;;;;;;20.27;11.17;;;-0.50;71.20;;;3.28;45.56;98196.53;5054634;28;20049;-42
2023/03/01 04:31:18;;;;;;;17.83;11.40;;;-0.50;71.10;;;3.30;45.28;98194.63;5055255;28;20499;-42
2023/03/01 04:33:55;;;;;;;25.03;12.70;;;-0.50;71.10;;;3.32;45.33;98196.22;5072585;28;20044;-43
2023/03/01 04:36:25;;;;;;;18.83;12.17;;;-0.40;71.10;;;3.37;45.25;98188.00;5072426;28;20461;-44
2023/03/01 04:38:54;;;;;;;20.57;11.60;;;-0.30;70.80;;;3.42;45.31;98187.72;5072455;28;20041;-42
2023/03/01 04:41:24;;;;;;;19.00;10.30;;;-0.30;70.60;;;3.42;45.58;98192.97;5054688;28;20049;-43
2023/03/01 04:43:51;;;;;;;18.43;11.53;;;-0.30;70.50;;;3.40;45.44;98193.06;5072201;28;20048;-42
2023/03/01 04:46:20;;;;;;;20.00;11.37;;;-0.30;70.60;;;3.40;45.45;98195.72;5072159;28;20518;-42
2023/03/01 04:48:48;;;;;;;19.97;11.43;;;-0.30;70.90;;;3.39;45.64;98191.38;5072468;28;20047;-42
2023/03/01 04:51:16;;;;;;;17.67;10.40;;;-0.40;70.70;;;3.39;45.18;98191.38;5072269;28;20423;-43
2023/03/01 04:53:44;;;;;;;18.00;10.83;;;-0.40;71.00;;;3.38;45.43;98189.69;5051793;28;20041;-43
2023/03/01 04:56:17;;;;;;;21.10;11.70;;;-0.40;70.70;;;3.33;45.47;98197.91;5072352;28;20051;-45
2023/03/01 04:58:46;;;;;;;18.93;11.83;;;-0.40;71.70;;;3.33;45.39;98187.38;5072176;28;20055;-44
2023/03/01 05:01:18;;;;;;;21.03;11.27;;;-0.40;71.20;;;3.39;45.52;98195.81;5071929;28;20295;-43
2023/03/01 05:03:51;;;;;;;17.60;10.27;;;-0.30;70.60;;;3.37;45.54;98195.06;5055029;28;20047;-46
2023/03/01 05:06:19;;;;;;;19.37;11.20;;;-0.40;70.50;;;3.31;45.30;98191.88;5054569;28;20040;-43
2023/03/01 05:08:47;;;;;;;17.97;10.47;;;-0.50;70.80;;;3.30;45.09;98197.28;5037264;28;20036;-43
2023/03/01 05:11:15;;;;;;;17.23;9.83;;;-0.50;71.20;;;3.32;45.57;98195.38;5071925;28;20048;-43
2023/03/01 05:13:43;;;;;;;17.57;9.70;;;-0.40;71.10;;;3.37;45.37;98192.44;5054264;28;20056;-42
2023/03/01 05:16:13;;;;;;;20.50;12.20;;;-0.30;70.60;;;3.37;45.22;98195.91;5071896;28;20407;-44
2023/03/01 05:18:41;;;;;;;19.43;10.73;;;-0.30;70.30;;;3.35;45.47;98192.53;5071280;28;20051;-43
2023/03/01 05:21:15;;;;;;;19.67;10.97;;;-0.40;70.40;;;3.37;45.31;98192.44;5071854;28;20106;-45
2023/03/01 05:23:44;;;;;;;18.83;10.53;;;-0.30;70.10;;;3.34;45.49;98186.44;5071774;28;20044;-44
2023/03/01 05:26:12;;;;;;;16.33;10.80;;;-0.20;69.90;;;3.36;45.40;98191.59;5053907;28;20048;-43
2023/03/01 05:28:58;;;;;;;19.47;10.17;;;-0.20;69.80;;;3.31;45.52;98183.97;5071481;28;20059;-46
2023/03/01 05:31:26;;;;;;;20.03;9.90;;;-0.30;69.90;;;3.26;45.18;98186.09;5071740;28;20044;-46
2023/03/01 05:33:54;;;;;;;20.47;11.23;;;-0.40;70.10;;;3.24;45.28;98195.88;5071542;28;20048;-42
2023/03/01 05:36:22;;;;;;;19.43;11.50;;;-0.40;70.20;;;3.22;45.43;98189.03;5052926;28;20047;-42
2023/03/01 05:38:49;;;;;;;18.83;11.87;;;-0.50;70.20;;;3.20;45.27;98188.28;5071534;28;20393;-42
2023/03/01 05:41:17;;;;;;;20.13;12.00;;;-0.50;70.20;;;3.14;45.14;98193.03;5071153;28;20048;-42
2023/03/01 05:43:44;;;;;;;26.33;15.10;;;-0.50;70.10;;;3.15;44.99;98193.84;5071231;28;20045;-42
2023/03/01 05:46:14;;;;;;;28.50;14.20;;;-0.50;70.30;;;3.15;45.38;98193.84;5071160;28;20046;-41
2023/03/01 05:48:43;;;;;;;23.17;13.00;;;-0.50;70.00;;;3.14;45.26;98186.91;5071050;28;20048;-43
2023/03/01 05:51:11;;;;;;;20.33;12.73;;;-0.50;70.00;;;3.11;45.11;98185.31;5052504;28;20040;-44
2023/03/01 05:53:39;;;;;;;20.60;10.90;;;-0.50;69.90;;;3.11;45.13;98189.75;5071269;28;20044;-42
2023/03/01 05:56:07;;;;;;;23.13;12.83;;;-0.50;70.00;;;3.06;45.22;98190.03;5070939;28;20055;-45
2023/03/01 05:58:34;;;;;;;25.27;13.33;;;-0.50;70.00;;;3.03;45.29;98192.03;5070311;28;20041;-47
2023/03/01 06:01:02;;;;;;;22.87;15.00;;;-0.60;70.40;;;3.05;45.50;98187.53;5070931;28;20058;-44
2023/03/01 06:03:29;;;;;;;21.90;12.33;;;-0.60;70.30;;;3.05;45.02;98188.34;5070771;28;20055;-45
2023/03/01 06:05:58;;;;;;;20.33;13.00;;;-0.50;70.00;;;3.05;45.19;98188.34;5070694;28;20044;-45
2023/03/01 06:08:26;;;;;;;23.00;13.17;;;-0.50;70.10;;;3.05;45.11;98179.63;5053389;28;20045;-45
2023/03/01 06:10:54;;;;;;;23.57;12.73;;;-0.50;70.10;;;3.05;45.44;98180.47;5070780;28;20415;-42
2023/03/01 06:13:23;;;;;;;21.60;12.43;;;-0.50;70.00;;;3.05;45.32;98180.47;5053318;28;20049;-43
2023/03/01 06:15:51;;;;;;;23.93;12.77;;;-0.50;70.00;;;3.03;45.62;98176.25;5070549;28;20045;-43
2023/03/01 06:18:19;;;;;;;20.03;11.90;;;-0.60;70.00;;;3.02;45.28;98185.91;5070935;28;20052;-47
2023/03/01 06:20:56;;;;;;;22.80;12.03;;;-0.60;69.90;;;3.01;45.39;98180.78;5070771;28;20055;-43
2023/03/01 06:23:24;;;;;;;23.27;12.33;;;-0.60;69.90;;;3.00;45.85;98185.19;5053103;28;20049;-43
2023/03/01 06:25:52;;;;;;;21.20;12.27;;;-0.60;69.90;;;3.01;45.59;98184.25;5070503;28;20396;-44
2023/03/01 06:28:20;;;;;;;21.90;12.20;;;-0.50;70.20;;;3.04;45.28;98185.81;5070873;28;20060;-43
2023/03/01 06:30:51;;;;;;;21.90;12.20;;;-0.60;70.20;;;3.07;45.58;98177.75;5072332;28;20056;-44
2023/03/01 06:33:24;;;;;;;21.33;12.57;;;-0.50;69.70;;;3.10;45.35;98191.53;5057265;28;20411;-43
2023/03/01 06:35:54;;;;;;;20.73;11.60;;;-0.40;69.70;;;3.12;45.41;98178.25;5064075;28;20049;-44
2023/03/01 06:38:23;;;;;;;22.40;12.47;;;-0.40;69.50;;;3.12;45.63;98180.91;5074752;28;20495;-42
2023/03/01 06:40:56;;;;;;;20.80;13.10;;;-0.40;69.90;;;3.16;45.69;98187.66;5074355;28;20044;-43
2023/03/01 06:43:23;;;;;;;19.40;12.27;;;-0.40;69.60;;;3.21;45.59;98182.91;5057396;28;20611;-43
2023/03/01 06:45:51;;;;;;;23.00;12.73;;;-0.30;69.80;;;3.27;45.64;98177.25;5074176;28;20047;-44
2023/03/01 06:48:19;;;;;;;20.47;12.17;;;-0.30;69.80;;;3.31;45.42;98185.78;5074794;28;20044;-43
2023/03/01 06:50:46;;;;;;;21.10;11.90;;;-0.20;69.30;;;3.35;45.58;98179.38;5064785;28;20043;-44
2023/03/01 06:53:14;;;;;;;23.03;12.03;;;-0.20;69.00;;;3.35;45.41;98168.84;5074554;28;20415;-45
2023/03/01 06:55:41;;;;;;;26.30;12.40;;;-0.20;68.80;;;3.35;45.52;98171.47;5074104;28;20404;-45
2023/03/01 06:58:10;;;;;;;22.53;13.00;;;-0.20;69.10;;;3.35;45.21;98176.72;5074218;28;20048;-44
2023/03/01 07:00:39;;;;;;;23.03;12.97;;;-0.20;69.10;;;3.33;45.08;98170.72;5056644;28;20052;-45
2023/03/01 07:03:08;;;;;;;25.30;12.40;;;-0.20;69.30;;;3.30;45.22;98161.25;5064998;28;20526;-43
2023/03/01 07:05:36;;;;;;;21.13;11.20;;;-0.30;69.10;;;3.27;45.27;98169.34;5056165;28;20055;-42
2023/03/01 07:08:04;;;;;;;19.87;11.77;;;-0.30;69.20;;;3.25;45.58;98173.03;5074234;28;20503;-44
2023/03/01 07:10:32;;;;;;;22.13;12.33;;;-0.30;69.30;;;3.24;45.61;98174.84;5056206;28;20048;-43
2023/03/01 07:12:59;;;;;;;22.97;12.37;;;-0.30;69.50;;;3.25;45.27;98167.78;5074002;28;20036;-42
2023/03/01 07:15:28;;;;;;;19.83;11.50;;;-0.30;69.50;;;3.25;45.70;98168.63;5073701;28;20040;-44
2023/03/01 07:17:56;;;;;;;22.30;12.93;;;-0.30;69.80;;;3.26;45.59;98165.06;5073909;28;20427;-42
2023/03/01 07:20:25;;;;;;;22.87;12.60;;;-0.30;69.70;;;3.25;45.64;98159.88;5073755;28;20043;-42
2023/03/01 07:22:54;;;;;;;21.20;12.67;;;-0.30;69.80;;;3.23;45.40;98164.41;5073436;28;20052;-44
2023/03/01 07:25:22;;;;;;;22.17;12.27;;;-0.40;70.50;;;3.22;45.50;98158.31;5055894;28;20389;-43
2023/03/01 07:27:53;;;;;;;22.57;12.83;;;-0.30;69.60;;;3.18;45.46;98154.19;5056106;28;20051;-42
2023/03/01 07:30:21;;;;;;;21.27;12.03;;;-0.30;69.50;;;3.15;45.54;98157.84;5073358;28;20052;-41
2023/03/01 07:32:49;;;;;;;24.90;13.10;;;-0.30;69.30;;;3.17;45.83;98157.75;5073694;28;20041;-41
2023/03/01 07:35:16;;;;;;;25.03;12.37;;;-0.30;69.60;;;3.22;45.63;98158.31;5073070;28;20154;-45
2023/03/01 07:37:44;;;;;;;24.00;12.77;;;-0.20;69.40;;;3.24;45.66;98155.56;5073551;28;20416;-45
2023/03/01 07:40:12;;;;;;;23.73;12.97;;;-0.20;69.20;;;3.23;45.50;98151.25;5065156;28;20099;-42
2023/03/01 07:42:40;;;;;;;22.63;12.60;;;-0.10;69.40;;;3.25;45.70;98152.81;5073094;28;20040;-41
2023/03/01 07:45:08;;;;;;;19.33;11.50;;;-0.20;69.40;;;3.26;45.65;98143.16;5073238;28;20048;-42
2023/03/01 07:47:36;;;;;;;22.67;12.40;;;-0.20;69.70;;;3.27;45.75;98143.03;5073071;28;20763;-42
2023/03/01 07:50:05;;;;;;;20.30;12.53;;;-0.20;69.60;;;3.30;45.80;98142.84;5072936;28;20602;-42
2023/03/01 07:52:32;;;;;;;23.07;13.10;;;-0.20;70.00;;;3.34;45.61;98143.47;5073422;28;20407;-42
2023/03/01 07:55:00;;;;;;;23.93;12.53;;;-0.20;70.10;;;3.37;45.59;98147.69;5051122;28;20047;-41
2023/03/01 07:57:27;;;;;;;21.60;12.40;;;-0.10;70.10;;;3.41;45.92;98151.78;5073444;28;20408;-42
2023/03/01 07:59:55;;;;;;;22.17;12.47;;;0.00;69.70;;;3.45;45.32;98142.72;5073056;28;20063;-43
2023/03/01 08:02:22;;;;;;;21.90;12.03;;;0.00;69.40;;;3.46;45.71;98141.81;5073419;28;20051;-42
2023/03/01 08:04:50;;;;;;;27.60;13.40;;;0.10;69.40;;;3.49;45.64;98141.56;5072661;28;20048;-43
2023/03/01 08:07:17;;;;;;;26.80;13.97;;;0.10;69.20;;;3.52;45.52;98128.22;5073301;28;20048;-42
2023/03/01 08:09:45;;;;;;;24.10;13.77;;;0.10;69.20;;;3.57;45.67;98134.03;5055503;28;20067;-42
2023/03/01 08:12:12;;;;;;;23.53;13.53;;;0.10;69.30;;;3.59;45.79;98137.38;5072804;28;20025;-44
2023/03/01 08:14:40;;;;;;;22.60;12.47;;;0.20;69.50;;;3.60;46.00;98136.44;5072703;28;20051;-44
2023/03/01 08:17:08;;;;;;;21.53;12.23;;;0.30;68.80;;;3.58;45.53;98133.06;5072636;28;20048;-44
2023/03/01 08:19:36;;;;;;;26.67;13.33;;;0.30;68.60;;;3.59;45.72;98128.63;5072916;28;20073;-41
2023/03/01 08:22:03;;;;;;;26.13;12.83;;;0.30;68.40;;;3.61;45.36;98135.50;5072154;28;20047;-41
2023/03/01 08:24:31;;;;;;;21.17;12.60;;;0.20;68.70;;;3.68;45.84;98133.25;5072850;28;20048;-42
2023/03/01 08:26:58;;;;;;;24.90;13.07;;;0.30;68.90;;;3.73;45.59;98129.38;5072385;28;20392;-43
2023/03/01 08:29:26;;;;;;;25.47;12.80;;;0.30;68.70;;;3.79;45.47;98124.63;5073151;28;20056;-41
2023/03/01 08:31:53;;;;;;;24.30;13.27;;;0.40;68.60;;;3.80;45.44;98132.44;5072299;28;20424;-43
2023/03/01 08:34:21;;;;;;;24.40;13.67;;;0.40;68.20;;;3.82;45.69;98120.00;5072626;28;20044;-42
2023/03/01 08:36:50;;;;;;;26.00;12.30;;;0.50;68.20;;;3.86;46.03;98118.84;5054063;28;20049;-41
2023/03/01 08:39:19;;;;;;;25.23;13.70;;;0.50;68.20;;;3.90;45.40;98119.47;5063241;28;20048;-42
2023/03/01 08:41:47;;;;;;;22.70;12.70;;;0.50;68.00;;;3.87;45.43;98114.41;5048995;28;20044;-41
2023/03/01 08:44:19;;;;;;;23.67;13.13;;;0.60;67.90;;;3.90;45.85;98125.56;5065432;28;20393;-43
2023/03/01 08:46:47;;;;;;;26.33;14.50;;;0.60;67.60;;;3.92;45.79;98109.66;5065482;28;20170;-41
2023/03/01 08:49:17;;;;;;;25.00;13.93;;;0.70;68.00;;;3.98;45.52;98118.91;5065049;28;20049;-45
2023/03/01 08:51:46;;;;;;;25.70;13.47;;;0.70;67.80;;;3.97;45.70;98111.97;5065033;28;20040;-41
2023/03/01 08:54:19;;;;;;;22.53;12.03;;;0.70;68.10;;;3.98;45.73;98114.50;5033651;28;20051;-45
2023/03/01 08:56:47;;;;;;;25.63;13.90;;;0.70;68.40;;;4.07;45.95;98112.97;5067583;28;20499;-43
2023/03/01 08:59:17;;;;;;;27.27;13.37;;;0.80;68.20;;;4.16;45.88;98104.44;5054630;28;20538;-42
2023/03/01 09:01:44;;;;;;;24.90;13.20;;;0.90;67.90;;;4.20;45.59;98105.06;5054515;28;20037;-41
2023/03/01 09:04:14;;;;;;;21.57;12.57;;;1.00;67.60;;;4.24;45.61;98098.59;5071930;28;20036;-42
2023/03/01 09:06:42;;;;;;;23.27;12.77;;;1.00;67.70;;;4.33;45.50;98104.06;5054304;28;20219;-43
2023/03/01 09:09:16;;;;;;;25.77;13.67;;;1.00;67.50;;;4.43;45.37;98096.31;5071554;28;20040;-43
2023/03/01 09:11:49;;;;;;;24.63;13.50;;;1.10;67.10;;;4.51;45.48;98096.59;5071472;28;20036;-42
2023/03/01 09:14:17;;;;;;;20.77;12.60;;;1.10;66.70;;;4.60;45.13;98094.25;5066063;28;20032;-42
2023/03/01 09:16:45;;;;;;;22.67;12.93;;;1.20;66.20;;;4.68;45.41;98098.00;5071423;28;20048;-42
2023/03/01 09:19:13;;;;;;;25.30;14.27;;;1.30;66.10;;;4.74;45.10;98086.16;5054107;28;20033;-45
2023/03/01 09:21:40;;;;;;;27.93;14.03;;;1.40;66.20;;;4.79;45.18;98083.16;5071534;28;20040;-43
2023/03/01 09:24:14;;;;;;;19.83;13.30;;;1.50;66.30;;;4.85;45.08;98088.84;5071251;28;20055;-43
2023/03/01 09:26:46;;;;;;;27.13;14.03;;;1.50;66.00;;;4.92;44.42;98083.94;5071360;28;20047;-42
2023/03/01 09:29:15;;;;;;;20.97;12.00;;;1.60;65.60;;;4.98;44.17;98080.00;5071478;28;20040;-42
2023/03/01 09:31:43;;;;;;;26.33;14.20;;;1.60;64.90;;;5.01;44.56;98072.69;5071171;28;20036;-48
2023/03/01 09:34:10;;;;;;;25.17;13.63;;;1.70;65.10;;;5.08;44.31;98070.47;5061930;28;20064;-43
2023/03/01 09:36:38;;;;;;;24.43;13.70;;;1.80;64.00;;;5.10;44.20;98065.91;5064540;28;20385;-46
2023/03/01 09:39:05;;;;;;;24.47;14.00;;;1.80;64.10;;;5.15;44.64;98058.44;5061446;28;20036;-42
2023/03/01 09:41:54;;;;;;;26.27;13.40;;;1.80;64.20;;;5.18;43.99;98060.88;5046119;28;20052;-43
2023/03/01 09:44:51;;;;;;;22.70;12.17;;;1.90;63.90;;;5.23;44.49;98060.50;5047388;28;20140;-43
2023/03/01 09:47:23;;;;;;;21.07;13.27;;;2.00;63.50;;;5.32;43.59;98062.44;5045180;28;20154;-44
2023/03/01 09:50:14;;;;;;;19.73;12.17;;;2.10;63.50;;;5.37;44.41;98062.94;5053889;28;20044;-44
2023/03/01 09:53:07;;;;;;;26.73;13.43;;;2.10;62.40;;;5.37;44.24;98054.16;5050389;28;20041;-42
2023/03/01 09:55:42;;;;;;;24.77;13.97;;;2.20;62.40;;;5.45;44.19;98055.28;5048016;28;20044;-41
2023/03/01 09:58:52;;;;;;;21.63;12.87;;;2.20;61.70;;;5.36;43.45;98055.97;5036225;28;20140;-42
2023/03/01 10:01:40;;;;;;;22.67;12.60;;;2.30;61.10;;;5.43;43.59;98056.31;5055941;28;20047;-42
2023/03/01 10:04:39;;;;;;;22.77;12.50;;;2.30;61.90;;;5.51;43.82;98048.66;5053959;28;20044;-41
2023/03/01 10:07:09;;;;;;;23.33;11.53;;;2.40;62.20;;;5.63;43.46;98046.88;5054987;28;20048;-41
2023/03/01 10:09:42;;;;;;;23.50;14.57;;;2.40;61.50;;;5.67;43.77;98048.31;5070556;28;20044;-43
2023/03/01 10:12:32;;;;;;;23.60;13.80;;;2.40;61.40;;;5.72;43.00;98043.50;5053253;28;20052;-45
2023/03/01 10:15:30;;;;;;;22.73;13.17;;;2.50;61.40;;;5.74;43.10;98041.59;5054929;28;20407;-42
2023/03/01 10:18:12;;;;;;;23.33;13.60;;;2.60;60.60;;;5.79;43.25;98039.41;5054073;28;20044;-45
2023/03/01 10:21:17;;;;;;;25.03;13.13;;;2.60;60.50;;;5.82;43.03;98038.34;5054014;28;20411;-43
2023/03/01 10:23:46;;;;;;;30.30;14.23;;;2.60;59.70;;;5.91;43.11;98033.16;5048657;28;20519;-43
2023/03/01 10:26:36;;;;;;;21.50;12.67;;;2.70;60.50;;;5.94;43.67;98032.06;5070227;28;20063;-42
2023/03/01 10:29:10;;;;;;;22.00;13.47;;;2.80;60.20;;;6.06;42.76;98035.56;5053271;28;20399;-42
2023/03/01 10:31:52;;;;;;;;;;;2.80;60.60;;;6.08;43.59;98023.06;5071152;28;20517;-43
2023/03/01 10:34:33;;;;;;;21.80;11.93;;;2.90;59.30;;;6.19;42.74;98023.03;5055020;28;19920;-43